< < Back
Terminal Aerodrome Forecast


Current Version              Previous Versions:   1  2  3  4  5  6  7  8  9  

Terminal Aerodrome Forecast

179
FTUS42 KFFC 300339 AAB
TAFPDK
TAF AMD
KPDK 300339Z 3004/3024 25006KT P6SM BKN045
     FM300600 32015G25KT P6SM SCT025 BKN035
     FM300700 32012KT P6SM BKN020
     FM301200 32014KT P6SM SCT040
     FM301500 32014G24KT P6SM SCT150=

Latest METAR

848
SAUS70 KWBC 301700
MTRPDK
METAR KPDK 301653Z 31015G23KT 10SM CLR 07/M04 A3031 RMK AO2 SLP270
T00671039


USA.gov is the U.S. government's official web portal to all federal, state and local government web resources and services.